Time;durP1;ratioP1;P1;durP2;ratioP2;P2;SDS_P1;SDS_P2;PMS_P1;PMS_P2;Temp;Humidity;BMP_temperature;BMP_pressure;BME280_temperature;BME280_humidity;BME280_pressure;Samples;Min_cycle;Max_cycle;Signal;HPM_P1;HPM_P2
2023/07/03 00:02:23;;;;;;;;;;;;;;;-144.86;100.00;65694.16;5091828;28;19935;-66
2023/07/03 00:04:53;;;;;;;;;;;;;;;-144.86;100.00;65694.16;5084256;28;19950;-66
2023/07/03 00:07:23;;;;;;;;;;;;;;;-144.86;100.00;65694.16;5084299;28;19977;-66
2023/07/03 00:09:50;;;;;;;;;;;;;;;-144.86;100.00;65694.16;5092621;28;20022;-66
2023/07/03 00:12:20;;;;;;;;;;;;;;;-144.86;100.00;65694.16;5070955;28;19928;-66
2023/07/03 00:14:49;;;;;;;;;;;;;;;-144.86;100.00;65694.16;5084024;28;19924;-66
2023/07/03 00:17:17;;;;;;;;;;;;;;;-144.86;100.00;65694.16;5071304;28;19974;-66
2023/07/03 00:19:44;;;;;;;;;;;;;;;-144.86;100.00;65694.16;5091545;28;19974;-66
2023/07/03 00:22:12;;;;;;;;;;;;;;;-144.86;100.00;65694.16;5074479;28;19978;-66
2023/07/03 00:24:42;;;;;;;;;;;;;;;-144.86;100.00;65694.16;5075886;28;19924;-66
2023/07/03 00:27:10;;;;;;;;;;;;;;;-144.86;100.00;65694.16;5083058;28;19924;-66
2023/07/03 00:29:38;;;;;;;;;;;;;;;-144.86;100.00;65694.16;5084907;28;19977;-66
2023/07/03 00:32:06;;;;;;;;;;;;;;;-144.86;100.00;65694.16;5090350;28;19946;-66
2023/07/03 00:34:34;;;;;;;;;;;;;;;-144.86;100.00;65694.16;5075044;28;19989;-66
2023/07/03 00:37:03;;;;;;;;;;;;;;;-144.86;100.00;65694.16;5073242;28;20014;-66
2023/07/03 00:39:30;;;;;;;;;;;;;;;-144.86;100.00;65694.16;5076899;28;20389;-66
2023/07/03 00:42:00;;;;;;;;;;;;;;;-144.86;100.00;65694.16;5072685;28;20388;-66
2023/07/03 00:44:28;;;;;;;;;;;;;;;-144.86;100.00;65694.16;5086822;28;20381;-66
2023/07/03 00:46:56;;;;;;;;;;;;;;;-144.86;100.00;65694.16;5088855;28;19924;-66
2023/07/03 00:49:24;;;;;;;;;;;;;;;-144.86;100.00;65694.16;5080646;28;19928;-66
2023/07/03 00:51:55;;;;;;;;;;;;;;;-144.86;100.00;65694.16;5089343;28;19928;-66
2023/07/03 00:54:23;;;;;;;;;;;;;;;-144.86;100.00;65694.16;5091298;28;19990;-66
2023/07/03 00:56:50;;;;;;;;;;;;;;;-144.86;100.00;65694.16;5090653;28;19967;-66
2023/07/03 00:59:21;;;;;;;;;;;;;;;-144.86;100.00;65694.16;5089845;28;19969;-66
2023/07/03 01:01:51;;;;;;;;;;;;;;;-144.86;100.00;65694.16;5070271;28;19961;-66
2023/07/03 01:04:20;;;;;;;;;;;;;;;-144.86;100.00;65694.16;5074436;28;20277;-67
2023/07/03 01:06:50;;;;;;;;;;;;;;;-144.86;100.00;65694.16;5062737;28;19932;-66
2023/07/03 01:09:19;;;;;;;;;;;;;;;-144.86;100.00;65694.16;5079946;28;20023;-67
2023/07/03 01:11:47;;;;;;;;;;;;;;;-144.86;100.00;65694.16;5086750;28;19956;-66
2023/07/03 01:14:15;;;;;;;;;;;;;;;-144.86;100.00;65694.16;5083346;28;19963;-66
2023/07/03 01:16:45;;;;;;;;;;;;;;;-144.86;100.00;65694.16;5073499;28;20668;-66
2023/07/03 01:19:13;;;;;;;;;;;;;;;-144.86;100.00;65694.16;5073027;28;20266;-66
2023/07/03 01:21:41;;;;;;;;;;;;;;;-144.86;100.00;65694.16;5073976;28;19973;-66
2023/07/03 01:24:10;;;;;;;;;;;;;;;-144.86;100.00;65694.16;5072086;28;19925;-66
2023/07/03 01:26:40;;;;;;;;;;;;;;;-144.86;100.00;65694.16;5072885;28;19985;-66
2023/07/03 01:29:07;;;;;;;;;;;;;;;-144.86;100.00;65694.16;5078932;28;20006;-66
2023/07/03 01:31:35;;;;;;;;;;;;;;;-144.86;100.00;65694.16;5072369;28;19959;-66
2023/07/03 01:34:03;;;;;;;;;;;;;;;-144.86;100.00;65694.16;5090369;28;19924;-66
2023/07/03 01:36:31;;;;;;;;;;;;;;;-144.86;100.00;65694.16;5066343;28;19932;-66
2023/07/03 01:38:59;;;;;;;;;;;;;;;-144.86;100.00;65694.16;5068800;28;19928;-67
2023/07/03 01:41:27;;;;;;;;;;;;;;;-144.86;100.00;65694.16;5071240;28;20023;-66
2023/07/03 01:43:56;;;;;;;;;;;;;;;-144.86;100.00;65694.16;5085085;28;20312;-66
2023/07/03 01:46:24;;;;;;;;;;;;;;;-144.86;100.00;65694.16;5089375;28;19928;-66
2023/07/03 01:48:52;;;;;;;;;;;;;;;-144.86;100.00;65694.16;5070314;28;19931;-66
2023/07/03 01:51:25;;;;;;;;;;;;;;;-144.86;100.00;65694.16;5070021;28;19931;-66
2023/07/03 01:53:55;;;;;;;;;;;;;;;-144.86;100.00;65694.16;5071891;28;19924;-66
2023/07/03 01:56:24;;;;;;;;;;;;;;;-144.86;100.00;65694.16;5085393;28;19977;-66
2023/07/03 01:58:53;;;;;;;;;;;;;;;-144.86;100.00;65694.16;5075398;28;20022;-66
2023/07/03 02:01:24;;;;;;;;;;;;;;;-144.86;100.00;65694.16;5072333;28;19985;-66
2023/07/03 02:03:54;;;;;;;;;;;;;;;-144.86;100.00;65694.16;5078396;28;19949;-66
2023/07/03 02:06:22;;;;;;;;;;;;;;;-144.86;100.00;65694.16;5072861;28;19978;-66
2023/07/03 02:08:50;;;;;;;;;;;;;;;-144.86;100.00;65694.16;5078009;28;20011;-66
2023/07/03 02:11:21;;;;;;;;;;;;;;;-144.86;100.00;65694.16;5066860;28;19932;-66
2023/07/03 02:13:54;;;;;;;;;;;;;;;-144.86;100.00;65694.16;5082542;28;20284;-66
2023/07/03 02:16:29;;;;;;;;;;;;;;;-144.86;100.00;65694.16;5074432;28;19928;-66
2023/07/03 02:18:58;;;;;;;;;;;;;;;-144.86;100.00;65694.16;5093535;28;19931;-66
2023/07/03 02:21:27;;;;;;;;;;;;;;;-144.86;100.00;65694.16;5076943;28;19928;-66
2023/07/03 02:23:55;;;;;;;;;;;;;;;-144.86;100.00;65694.16;5072442;28;19927;-66
2023/07/03 02:26:23;;;;;;;;;;;;;;;-144.86;100.00;65694.16;5092760;28;19936;-66
2023/07/03 02:28:51;;;;;;;;;;;;;;;-144.86;100.00;65694.16;5094491;28;19993;-66
2023/07/03 02:31:18;;;;;;;;;;;;;;;-144.86;100.00;65694.16;5075026;28;19928;-66
2023/07/03 02:33:49;;;;;;;;;;;;;;;-144.86;100.00;65694.16;5074722;28;20335;-66
2023/07/03 02:36:17;;;;;;;;;;;;;;;-144.86;100.00;65694.16;5078601;28;19928;-67
2023/07/03 02:38:44;;;;;;;;;;;;;;;-144.86;100.00;65694.16;5086625;28;19981;-67
2023/07/03 02:41:12;;;;;;;;;;;;;;;-144.86;100.00;65694.16;5085988;28;19924;-67
2023/07/03 02:43:40;;;;;;;;;;;;;;;-144.86;100.00;65694.16;5075031;28;19928;-66
2023/07/03 02:46:09;;;;;;;;;;;;;;;-144.86;100.00;65694.16;5071319;28;19947;-66
2023/07/03 02:48:37;;;;;;;;;;;;;;;-144.86;100.00;65694.16;5071753;28;19933;-66
2023/07/03 02:51:07;;;;;;;;;;;;;;;-144.86;100.00;65694.16;5071897;28;19924;-66
2023/07/03 02:53:35;;;;;;;;;;;;;;;-144.86;100.00;65694.16;5071966;28;19924;-66
2023/07/03 02:56:09;;;;;;;;;;;;;;;-144.86;100.00;65694.16;5071814;28;19925;-66
2023/07/03 02:58:40;;;;;;;;;;;;;;;-144.86;100.00;65694.16;5072028;28;19924;-66
2023/07/03 03:01:11;;;;;;;;;;;;;;;-144.86;100.00;65694.16;5068390;28;19964;-66
2023/07/03 03:03:40;;;;;;;;;;;;;;;-144.86;100.00;65694.16;5072285;28;19928;-66
2023/07/03 03:06:09;;;;;;;;;;;;;;;-144.86;100.00;65694.16;5071165;28;19974;-66
2023/07/03 03:08:38;;;;;;;;;;;;;;;-144.86;100.00;65694.16;5072535;28;19929;-67
2023/07/03 03:11:07;;;;;;;;;;;;;;;-144.86;100.00;65694.16;5069595;28;19928;-66
2023/07/03 03:13:36;;;;;;;;;;;;;;;-144.86;100.00;65694.16;5070576;28;19931;-66
2023/07/03 03:16:04;;;;;;;;;;;;;;;-144.86;100.00;65694.16;5071917;28;19994;-66
2023/07/03 03:18:31;;;;;;;;;;;;;;;-144.86;100.00;65694.16;5072027;28;19928;-66
2023/07/03 03:20:59;;;;;;;;;;;;;;;-144.86;100.00;65694.16;5070952;28;19935;-67
2023/07/03 03:23:28;;;;;;;;;;;;;;;-144.86;100.00;65694.16;5071797;28;19967;-66
2023/07/03 03:25:56;;;;;;;;;;;;;;;-144.86;100.00;65694.16;5071636;28;19944;-66
2023/07/03 03:28:24;;;;;;;;;;;;;;;-144.86;100.00;65694.16;5066001;28;19935;-66
2023/07/03 03:30:52;;;;;;;;;;;;;;;-144.86;100.00;65694.16;5063168;28;20400;-66
2023/07/03 03:33:20;;;;;;;;;;;;;;;-144.86;100.00;65694.16;5075139;28;19925;-66
2023/07/03 03:35:47;;;;;;;;;;;;;;;-144.86;100.00;65694.16;5071590;28;20344;-67
2023/07/03 03:38:16;;;;;;;;;;;;;;;-144.86;100.00;65694.16;5071317;28;19928;-66
2023/07/03 03:40:46;;;;;;;;;;;;;;;-144.86;100.00;65694.16;5067005;28;20381;-66
2023/07/03 03:43:14;;;;;;;;;;;;;;;-144.86;100.00;65694.16;5070400;28;19924;-66
2023/07/03 03:45:43;;;;;;;;;;;;;;;-144.86;100.00;65694.16;5058650;28;19936;-66
2023/07/03 03:48:11;;;;;;;;;;;;;;;-144.86;100.00;65694.16;5058061;28;19931;-66
2023/07/03 03:50:39;;;;;;;;;;;;;;;-144.86;100.00;65694.16;5051549;28;19933;-66
2023/07/03 03:53:07;;;;;;;;;;;;;;;-144.86;100.00;65694.16;5052040;28;19975;-66
2023/07/03 03:55:35;;;;;;;;;;;;;;;-144.86;100.00;65694.16;5049124;28;19932;-66
2023/07/03 03:58:05;;;;;;;;;;;;;;;-144.86;100.00;65694.16;5056956;28;19925;-66
2023/07/03 04:00:34;;;;;;;;;;;;;;;-144.86;100.00;65694.16;5050945;28;20024;-66
2023/07/03 04:03:03;;;;;;;;;;;;;;;-144.86;100.00;65694.16;5060348;28;19933;-66
2023/07/03 04:05:31;;;;;;;;;;;;;;;-144.86;100.00;65694.16;5048247;28;19924;-66
2023/07/03 04:07:58;;;;;;;;;;;;;;;-144.86;100.00;65694.16;5048840;28;19964;-66
2023/07/03 04:10:26;;;;;;;;;;;;;;;-144.86;100.00;65694.16;5050982;28;19928;-66
2023/07/03 04:12:54;;;;;;;;;;;;;;;-144.86;100.00;65694.16;5048841;28;19932;-66
2023/07/03 04:15:24;;;;;;;;;;;;;;;-144.86;100.00;65694.16;5052080;28;20019;-66
2023/07/03 04:17:51;;;;;;;;;;;;;;;-144.86;100.00;65694.16;5049756;28;19932;-65
2023/07/03 04:20:19;;;;;;;;;;;;;;;-144.86;100.00;65694.16;5051865;28;19980;-66
2023/07/03 04:22:47;;;;;;;;;;;;;;;-144.86;100.00;65694.16;5051821;28;20019;-66
2023/07/03 04:25:15;;;;;;;;;;;;;;;-144.86;100.00;65694.16;5053056;28;19964;-66
2023/07/03 04:27:43;;;;;;;;;;;;;;;-144.86;100.00;65694.16;5047541;28;19971;-66
2023/07/03 04:30:11;;;;;;;;;;;;;;;-144.86;100.00;65694.16;5043645;28;19924;-66
2023/07/03 04:32:40;;;;;;;;;;;;;;;-144.86;100.00;65694.16;5042687;28;19939;-66
2023/07/03 04:35:09;;;;;;;;;;;;;;;-144.86;100.00;65694.16;5040364;28;19952;-66
2023/07/03 04:37:37;;;;;;;;;;;;;;;-144.86;100.00;65694.16;5046308;28;19928;-66
2023/07/03 04:40:06;;;;;;;;;;;;;;;-144.86;100.00;65694.16;5050504;28;20416;-66
2023/07/03 04:42:34;;;;;;;;;;;;;;;-144.86;100.00;65694.16;5051291;28;19932;-66
2023/07/03 04:45:04;;;;;;;;;;;;;;;-144.86;100.00;65694.16;5066016;28;19928;-67
2023/07/03 04:47:32;;;;;;;;;;;;;;;-144.86;100.00;65694.16;5082023;28;19924;-66
2023/07/03 04:50:01;;;;;;;;;;;;;;;-144.86;100.00;65694.16;5084349;28;20050;-66
2023/07/03 04:52:31;;;;;;;;;;;;;;;-144.86;100.00;65694.16;5088855;28;19924;-66
2023/07/03 04:54:59;;;;;;;;;;;;;;;-144.86;100.00;65694.16;5084986;28;19998;-66
2023/07/03 04:57:26;;;;;;;;;;;;;;;-144.86;100.00;65694.16;5083137;28;19935;-67
2023/07/03 04:59:55;;;;;;;;;;;;;;;-144.86;100.00;65694.16;5080826;28;19924;-65
2023/07/03 05:02:23;;;;;;;;;;;;;;;-144.86;100.00;65694.16;5086602;28;19960;-66
2023/07/03 05:04:51;;;;;;;;;;;;;;;-144.86;100.00;65694.16;5083823;28;21318;-66
2023/07/03 05:07:20;;;;;;;;;;;;;;;-144.86;100.00;65694.16;5090655;28;19928;-67
2023/07/03 05:09:48;;;;;;;;;;;;;;;-144.86;100.00;65694.16;5088458;28;19967;-66
2023/07/03 05:12:16;;;;;;;;;;;;;;;-144.86;100.00;65694.16;5073047;28;19963;-66
2023/07/03 05:14:43;;;;;;;;;;;;;;;-144.86;100.00;65694.16;5087873;28;19924;-67
2023/07/03 05:17:11;;;;;;;;;;;;;;;-144.86;100.00;65694.16;5090629;28;19970;-66
2023/07/03 05:19:39;;;;;;;;;;;;;;;-144.86;100.00;65694.16;5086418;28;19932;-66
2023/07/03 05:22:07;;;;;;;;;;;;;;;-144.86;100.00;65694.16;5086492;28;19932;-66
2023/07/03 05:24:36;;;;;;;;;;;;;;;-144.86;100.00;65694.16;5089184;28;19935;-66
2023/07/03 05:27:04;;;;;;;;;;;;;;;-144.86;100.00;65694.16;5088735;28;20393;-67
2023/07/03 05:29:32;;;;;;;;;;;;;;;-144.86;100.00;65694.16;5087654;28;20414;-67
2023/07/03 05:32:02;;;;;;;;;;;;;;;-144.86;100.00;65694.16;5088915;28;19928;-68
2023/07/03 05:34:31;;;;;;;;;;;;;;;-144.86;100.00;65694.16;5088475;28;19964;-67
2023/07/03 05:36:59;;;;;;;;;;;;;;;-144.86;100.00;65694.16;5084184;28;20005;-68
2023/07/03 05:39:27;;;;;;;;;;;;;;;-144.86;100.00;65694.16;5072524;28;19953;-67
2023/07/03 05:41:57;;;;;;;;;;;;;;;-144.86;100.00;65694.16;5068010;28;19928;-66
2023/07/03 05:44:25;;;;;;;;;;;;;;;-144.86;100.00;65694.16;5075702;28;19932;-66
2023/07/03 05:46:53;;;;;;;;;;;;;;;-144.86;100.00;65694.16;5083019;28;19928;-66
2023/07/03 05:49:21;;;;;;;;;;;;;;;-144.86;100.00;65694.16;5079103;28;20380;-66
2023/07/03 05:51:48;;;;;;;;;;;;;;;-144.86;100.00;65694.16;5072155;28;19932;-67
2023/07/03 05:54:16;;;;;;;;;;;;;;;-144.86;100.00;65694.16;5093642;28;20324;-66
2023/07/03 05:56:55;;;;;;;;;;;;;;;-144.86;100.00;65694.16;5075095;28;19989;-66
2023/07/03 05:59:25;;;;;;;;;;;;;;;-144.86;100.00;65694.16;5082434;28;19931;-66
2023/07/03 06:01:53;;;;;;;;;;;;;;;-144.86;100.00;65694.16;5066878;28;19971;-66
2023/07/03 06:04:22;;;;;;;;;;;;;;;-144.86;100.00;65694.16;5071872;28;19950;-67
2023/07/03 06:06:50;;;;;;;;;;;;;;;-144.86;100.00;65694.16;5092845;28;19928;-66
2023/07/03 06:09:18;;;;;;;;;;;;;;;-144.86;100.00;65694.16;5057873;28;19924;-67
2023/07/03 06:11:46;;;;;;;;;;;;;;;-144.86;100.00;65694.16;5089239;28;19932;-67
2023/07/03 06:14:16;;;;;;;;;;;;;;;-144.86;100.00;65694.16;5092176;28;19932;-66
2023/07/03 06:16:45;;;;;;;;;;;;;;;-144.86;100.00;65694.16;5092606;28;20746;-66
2023/07/03 06:19:17;;;;;;;;;;;;;;;-144.86;100.00;65694.16;5083879;28;20300;-67
2023/07/03 06:21:45;;;;;;;;;;;;;;;-144.86;100.00;65694.16;5095392;28;20053;-67
2023/07/03 06:24:13;;;;;;;;;;;;;;;-144.86;100.00;65694.16;5092442;28;19924;-67
2023/07/03 06:26:43;;;;;;;;;;;;;;;-144.86;100.00;65694.16;5068743;28;20356;-67
2023/07/03 06:29:12;;;;;;;;;;;;;;;-144.86;100.00;65694.16;5100612;28;19943;-67
2023/07/03 06:31:41;;;;;;;;;;;;;;;-144.86;100.00;65694.16;5092387;28;19928;-67
2023/07/03 06:34:10;;;;;;;;;;;;;;;-144.86;100.00;65694.16;5069460;28;19925;-67
2023/07/03 06:36:38;;;;;;;;;;;;;;;-144.86;100.00;65694.16;5087532;28;19928;-67
2023/07/03 06:39:09;;;;;;;;;;;;;;;-144.86;100.00;65694.16;5081260;28;19924;-66
2023/07/03 06:41:37;;;;;;;;;;;;;;;-144.86;100.00;65694.16;5075425;28;19924;-67
2023/07/03 06:44:05;;;;;;;;;;;;;;;-144.86;100.00;65694.16;5067846;28;19928;-67
2023/07/03 06:46:33;;;;;;;;;;;;;;;-144.86;100.00;65694.16;5080520;28;20431;-67
2023/07/03 06:49:01;;;;;;;;;;;;;;;-144.86;100.00;65694.16;5062463;28;19974;-67
2023/07/03 06:51:30;;;;;;;;;;;;;;;-144.86;100.00;65694.16;5075442;28;19924;-67
2023/07/03 06:53:58;;;;;;;;;;;;;;;-144.86;100.00;65694.16;5075545;28;19924;-67
2023/07/03 06:56:26;;;;;;;;;;;;;;;-144.86;100.00;65694.16;5084535;28;19931;-67
2023/07/03 06:58:54;;;;;;;;;;;;;;;-144.86;100.00;65694.16;5093356;28;19924;-67
2023/07/03 07:01:25;;;;;;;;;;;;;;;-144.86;100.00;65694.16;5092399;28;20077;-67
2023/07/03 07:03:54;;;;;;;;;;;;;;;-144.86;100.00;65694.16;5093021;28;20288;-66
2023/07/03 07:06:22;;;;;;;;;;;;;;;-144.86;100.00;65694.16;5092357;28;19963;-67
2023/07/03 07:08:52;;;;;;;;;;;;;;;-144.86;100.00;65694.16;5092195;28;20602;-66
2023/07/03 07:11:20;;;;;;;;;;;;;;;-144.86;100.00;65694.16;5081324;28;19928;-66
2023/07/03 07:13:49;;;;;;;;;;;;;;;-144.86;100.00;65694.16;5080848;28;19924;-67
2023/07/03 07:16:17;;;;;;;;;;;;;;;-144.86;100.00;65694.16;5076900;28;19925;-66
2023/07/03 07:18:47;;;;;;;;;;;;;;;-144.86;100.00;65694.16;5076787;28;19924;-66
2023/07/03 07:21:15;;;;;;;;;;;;;;;-144.86;100.00;65694.16;5085861;28;20652;-67
2023/07/03 07:23:43;;;;;;;;;;;;;;;-144.86;100.00;65694.16;5088318;28;20372;-67
2023/07/03 07:26:15;;;;;;;;;;;;;;;-144.86;100.00;65694.16;5068568;28;19929;-67
2023/07/03 07:28:42;;;;;;;;;;;;;;;-144.86;100.00;65694.16;5093114;28;19977;-67
2023/07/03 07:31:10;;;;;;;;;;;;;;;-144.86;100.00;65694.16;5091808;28;20373;-67
2023/07/03 07:33:38;;;;;;;;;;;;;;;-144.86;100.00;65694.16;5089928;28;20446;-67
2023/07/03 07:36:06;;;;;;;;;;;;;;;-144.86;100.00;65694.16;5091757;28;19928;-67
2023/07/03 07:38:34;;;;;;;;;;;;;;;-144.86;100.00;65694.16;5085561;28;19931;-67
2023/07/03 07:41:02;;;;;;;;;;;;;;;-144.86;100.00;65694.16;5091746;28;20420;-66
2023/07/03 07:43:32;;;;;;;;;;;;;;;-144.86;100.00;65694.16;5088655;28;20461;-66
2023/07/03 07:46:00;;;;;;;;;;;;;;;-144.86;100.00;65694.16;5088581;28;19964;-66
2023/07/03 07:48:27;;;;;;;;;;;;;;;-144.86;100.00;65694.16;5088153;28;19978;-67
2023/07/03 07:50:57;;;;;;;;;;;;;;;-144.86;100.00;65694.16;5074307;28;20393;-66
2023/07/03 07:53:26;;;;;;;;;;;;;;;-144.86;100.00;65694.16;5090186;28;19985;-67
2023/07/03 07:55:55;;;;;;;;;;;;;;;-144.86;100.00;65694.16;5092730;28;19924;-67
2023/07/03 07:58:23;;;;;;;;;;;;;;;-144.86;100.00;65694.16;5092353;28;19969;-66
2023/07/03 08:00:53;;;;;;;;;;;;;;;-144.86;100.00;65694.16;5092424;28;19927;-66
2023/07/03 08:03:21;;;;;;;;;;;;;;;-144.86;100.00;65694.16;5092238;28;19924;-67
2023/07/03 08:05:49;;;;;;;;;;;;;;;-144.86;100.00;65694.16;5090508;28;20022;-66
2023/07/03 08:08:17;;;;;;;;;;;;;;;-144.86;100.00;65694.16;5096561;28;19924;-67
2023/07/03 08:10:51;;;;;;;;;;;;;;;-144.86;100.00;65694.16;5071834;28;19962;-67
2023/07/03 08:13:20;;;;;;;;;;;;;;;-144.86;100.00;65694.16;5089474;28;19931;-67
2023/07/03 08:15:50;;;;;;;;;;;;;;;-144.86;100.00;65694.16;5090248;28;19924;-67
2023/07/03 08:18:20;;;;;;;;;;;;;;;-144.86;100.00;65694.16;5085061;28;19924;-66
2023/07/03 08:20:48;;;;;;;;;;;;;;;-144.86;100.00;65694.16;5085181;28;19975;-67
2023/07/03 08:23:16;;;;;;;;;;;;;;;-144.86;100.00;65694.16;5091230;28;19928;-67
2023/07/03 08:25:44;;;;;;;;;;;;;;;-144.86;100.00;65694.16;5092229;28;19928;-68
2023/07/03 08:28:12;;;;;;;;;;;;;;;-144.86;100.00;65694.16;5091091;28;19932;-67
2023/07/03 08:30:40;;;;;;;;;;;;;;;-144.86;100.00;65694.16;5091488;28;19971;-67
2023/07/03 08:33:08;;;;;;;;;;;;;;;-144.86;100.00;65694.16;5091118;28;19977;-67
2023/07/03 08:35:37;;;;;;;;;;;;;;;-144.86;100.00;65694.16;5091982;28;19924;-66
2023/07/03 08:38:09;;;;;;;;;;;;;;;-144.86;100.00;65694.16;5091046;28;20364;-65
2023/07/03 08:40:37;;;;;;;;;;;;;;;-144.86;100.00;65694.16;5090416;28;19931;-67
2023/07/03 08:43:05;;;;;;;;;;;;;;;-144.86;100.00;65694.16;5091259;28;20015;-66
2023/07/03 08:45:34;;;;;;;;;;;;;;;-144.86;100.00;65694.16;5084585;28;20028;-66
2023/07/03 08:48:02;;;;;;;;;;;;;;;-144.86;100.00;65694.16;5090571;28;19923;-65
2023/07/03 08:50:30;;;;;;;;;;;;;;;-144.86;100.00;65694.16;5087333;28;20549;-66
2023/07/03 08:53:05;;;;;;;;;;;;;;;-144.86;100.00;65694.16;5091438;28;20033;-66
2023/07/03 08:55:35;;;;;;;;;;;;;;;-144.86;100.00;65694.16;5091224;28;19967;-66
2023/07/03 08:58:02;;;;;;;;;;;;;;;-144.86;100.00;65694.16;5065888;28;20150;-66
2023/07/03 09:00:31;;;;;;;;;;;;;;;-144.86;100.00;65694.16;5088844;28;19928;-66
2023/07/03 09:03:00;;;;;;;;;;;;;;;-144.86;100.00;65694.16;5081661;28;19971;-66
2023/07/03 09:05:31;;;;;;;;;;;;;;;-144.86;100.00;65694.16;5074067;28;20014;-65
2023/07/03 09:07:59;;;;;;;;;;;;;;;-144.86;100.00;65694.16;5087558;28;20023;-66
2023/07/03 09:10:30;;;;;;;;;;;;;;;-144.86;100.00;65694.16;5088918;28;19924;-66
2023/07/03 09:13:01;;;;;;;;;;;;;;;-144.86;100.00;65694.16;5079329;28;19928;-67
2023/07/03 09:15:30;;;;;;;;;;;;;;;-144.86;100.00;65694.16;5086625;28;20377;-66
2023/07/03 09:17:58;;;;;;;;;;;;;;;-144.86;100.00;65694.16;5081783;28;19924;-66
2023/07/03 09:20:26;;;;;;;;;;;;;;;-144.86;100.00;65694.16;5061604;28;19952;-67
2023/07/03 09:22:55;;;;;;;;;;;;;;;-144.86;100.00;65694.16;5088996;28;20345;-66
2023/07/03 09:25:28;;;;;;;;;;;;;;;-144.86;100.00;65694.16;5087320;28;19928;-66
2023/07/03 09:27:58;;;;;;;;;;;;;;;-144.86;100.00;65694.16;5086075;28;19928;-66
2023/07/03 09:30:26;;;;;;;;;;;;;;;-144.86;100.00;65694.16;5083995;28;19950;-66
2023/07/03 09:32:56;;;;;;;;;;;;;;;-144.86;100.00;65694.16;5089699;28;20288;-65
2023/07/03 09:35:25;;;;;;;;;;;;;;;-144.86;100.00;65694.16;5091368;28;19939;-65
2023/07/03 09:38:01;;;;;;;;;;;;;;;-144.86;100.00;65694.16;5088947;28;19924;-66
2023/07/03 09:40:30;;;;;;;;;;;;;;;-144.86;100.00;65694.16;5083818;28;20381;-66
2023/07/03 09:43:00;;;;;;;;;;;;;;;-144.86;100.00;65694.16;5089693;28;20308;-66
2023/07/03 09:45:30;;;;;;;;;;;;;;;-144.86;100.00;65694.16;5064688;28;20302;-66
2023/07/03 09:47:58;;;;;;;;;;;;;;;-144.86;100.00;65694.16;5049590;28;19956;-66
2023/07/03 09:50:27;;;;;;;;;;;;;;;-144.86;100.00;65694.16;5052893;28;20408;-66
2023/07/03 09:52:55;;;;;;;;;;;;;;;-144.86;100.00;65694.16;5050631;28;19925;-66
2023/07/03 09:55:34;;;;;;;;;;;;;;;-144.86;100.00;65694.16;5041634;28;19929;-66
2023/07/03 09:58:06;;;;;;;;;;;;;;;-144.86;100.00;65694.16;5047584;28;19931;-66
2023/07/03 10:00:35;;;;;;;;;;;;;;;-144.86;100.00;65694.16;5050105;28;20321;-66
2023/07/03 10:03:03;;;;;;;;;;;;;;;-144.86;100.00;65694.16;5049635;28;20015;-66
2023/07/03 10:05:34;;;;;;;;;;;;;;;-144.86;100.00;65694.16;5054445;28;19924;-66
2023/07/03 10:08:06;;;;;;;;;;;;;;;-144.86;100.00;65694.16;5045277;28;19967;-66
2023/07/03 10:10:39;;;;;;;;;;;;;;;-144.86;100.00;65694.16;5045492;28;20356;-66
2023/07/03 10:13:13;;;;;;;;;;;;;;;-144.86;100.00;65694.16;5044328;28;19925;-67
2023/07/03 10:15:42;;;;;;;;;;;;;;;-144.86;100.00;65694.16;5044528;28;19925;-66
2023/07/03 10:18:11;;;;;;;;;;;;;;;-144.86;100.00;65694.16;5045551;28;19925;-66
2023/07/03 10:20:41;;;;;;;;;;;;;;;-144.86;100.00;65694.16;5054466;28;19925;-67
2023/07/03 10:23:10;;;;;;;;;;;;;;;-144.86;100.00;65694.16;5036965;28;20017;-67
2023/07/03 10:25:38;;;;;;;;;;;;;;;-144.86;100.00;65694.16;5043347;28;19932;-66
2023/07/03 10:28:09;;;;;;;;;;;;;;;-144.86;100.00;65694.16;5049657;28;19925;-66
2023/07/03 10:30:42;;;;;;;;;;;;;;;-144.86;100.00;65694.16;5050152;28;20316;-66
2023/07/03 10:33:11;;;;;;;;;;;;;;;-144.86;100.00;65694.16;5040093;28;21788;-67
2023/07/03 10:35:41;;;;;;;;;;;;;;;-144.86;100.00;65694.16;5048074;28;19925;-67
2023/07/03 10:38:12;;;;;;;;;;;;;;;-144.86;100.00;65694.16;5046224;28;19939;-66
2023/07/03 10:40:41;;;;;;;;;;;;;;;-144.86;100.00;65694.16;5052069;28;19924;-66
2023/07/03 10:43:09;;;;;;;;;;;;;;;-144.86;100.00;65694.16;5047176;28;19932;-66
2023/07/03 10:45:38;;;;;;;;;;;;;;;-144.86;100.00;65694.16;5072295;28;19924;-66
2023/07/03 10:48:08;;;;;;;;;;;;;;;-144.86;100.00;65694.16;5082257;28;19982;-66
2023/07/03 10:50:38;;;;;;;;;;;;;;;-144.86;100.00;65694.16;5091017;28;19924;-66
2023/07/03 10:53:09;;;;;;;;;;;;;;;-144.86;100.00;65694.16;5081931;28;19924;-66
2023/07/03 10:55:41;;;;;;;;;;;;;;;-144.86;100.00;65694.16;5093365;28;20404;-66
2023/07/03 10:58:12;;;;;;;;;;;;;;;-144.86;100.00;65694.16;5070705;28;19930;-66
2023/07/03 11:00:42;;;;;;;;;;;;;;;-144.86;100.00;65694.16;5089978;28;20305;-66
2023/07/03 11:03:14;;;;;;;;;;;;;;;-144.86;100.00;65694.16;5070954;28;20547;-66
2023/07/03 11:05:43;;;;;;;;;;;;;;;-144.86;100.00;65694.16;5076873;28;19938;-66
2023/07/03 11:08:13;;;;;;;;;;;;;;;-144.86;100.00;65694.16;5089225;28;19931;-65
2023/07/03 11:10:42;;;;;;;;;;;;;;;-144.86;100.00;65694.16;5084005;28;19928;-65
2023/07/03 11:13:12;;;;;;;;;;;;;;;-144.86;100.00;65694.16;5065905;28;20422;-66
2023/07/03 11:15:43;;;;;;;;;;;;;;;-144.86;100.00;65694.16;5090693;28;20373;-65
2023/07/03 11:18:15;;;;;;;;;;;;;;;-144.86;100.00;65694.16;5092534;28;19924;-65
2023/07/03 11:20:47;;;;;;;;;;;;;;;-144.86;100.00;65694.16;5084783;28;19935;-66
2023/07/03 11:23:19;;;;;;;;;;;;;;;-144.86;100.00;65694.16;5067660;28;20038;-66
2023/07/03 11:25:50;;;;;;;;;;;;;;;-144.86;100.00;65694.16;5086913;28;20351;-65
2023/07/03 11:28:23;;;;;;;;;;;;;;;-144.86;100.00;65694.16;5092149;28;19924;-66
2023/07/03 11:30:54;;;;;;;;;;;;;;;-144.86;100.00;65694.16;5093442;28;19978;-66
2023/07/03 11:33:23;;;;;;;;;;;;;;;-144.86;100.00;65694.16;5087328;28;20022;-66
2023/07/03 11:35:52;;;;;;;;;;;;;;;-144.86;100.00;65694.16;5087322;28;19966;-66
2023/07/03 11:38:20;;;;;;;;;;;;;;;-144.86;100.00;65694.16;5090283;28;19977;-66
2023/07/03 11:41:04;;;;;;;;;;;;;;;-144.86;100.00;65694.16;5093026;28;19928;-65
2023/07/03 11:43:33;;;;;;;;;;;;;;;-144.86;100.00;65694.16;5088322;28;19932;-65
2023/07/03 11:46:05;;;;;;;;;;;;;;;-144.86;100.00;65694.16;5053797;28;20019;-66
2023/07/03 11:48:43;;;;;;;;;;;;;;;-144.86;100.00;65694.16;5088793;28;20369;-65
2023/07/03 11:51:12;;;;;;;;;;;;;;;-144.86;100.00;65694.16;5092295;28;19931;-65
2023/07/03 11:53:43;;;;;;;;;;;;;;;-144.86;100.00;65694.16;5092279;28;19928;-66
2023/07/03 11:56:12;;;;;;;;;;;;;;;-144.86;100.00;65694.16;5090099;28;19924;-66
2023/07/03 11:58:41;;;;;;;;;;;;;;;-144.86;100.00;65694.16;5104496;28;20607;-66
2023/07/03 12:01:24;;;;;;;;;;;;;;;-144.86;100.00;65694.16;5092087;28;19947;-65
2023/07/03 12:03:54;;;;;;;;;;;;;;;-144.86;100.00;65694.16;5084740;28;20284;-65
2023/07/03 12:06:47;;;;;;;;;;;;;;;-144.86;100.00;65694.16;5069940;28;20287;-65
2023/07/03 12:09:29;;;;;;;;;;;;;;;-144.86;100.00;65694.16;5075510;28;19974;-65
2023/07/03 12:12:18;;;;;;;;;;;;;;;-144.86;100.00;65694.16;5070067;28;19928;-66
2023/07/03 12:14:54;;;;;;;;;;;;;;;-144.86;100.00;65694.16;5055509;28;19934;-66
2023/07/03 12:17:23;;;;;;;;;;;;;;;-144.86;100.00;65694.16;5092274;28;19924;-65
2023/07/03 12:19:55;;;;;;;;;;;;;;;-144.86;100.00;65694.16;5080434;28;19924;-65
2023/07/03 12:22:25;;;;;;;;;;;;;;;-144.86;100.00;65694.16;5092833;28;19930;-66
2023/07/03 12:25:02;;;;;;;;;;;;;;;-144.86;100.00;65694.16;5093962;28;19959;-65
2023/07/03 12:27:31;;;;;;;;;;;;;;;-144.86;100.00;65694.16;5099938;28;19924;-65
2023/07/03 12:29:59;;;;;;;;;;;;;;;-144.86;100.00;65694.16;5068841;28;19924;-65